Ayr, North Dakota
Current Conditions -  °F | °C
As of 10:55 AM on Saturday 22 Nov 2014 (Local Time) from KBAC Reporting Station
Clear Clear  
Wind Chill: 26°   Ceiling: Unl
Heat Index: 34°   Visibility: 10mi
Dew Point: 28°   Wind: 10mph
Humidity: 81%   Direction: 160°SSE
Pressure: 29.55"   Gusts: NA
Location:  47.04°N, 97.49°W
Report Text: KBAC 221655Z AUTO 16009KT 10SM CLR 01/M02 A2955 RMK AO2
Loading
Personal Weather Stations






























Interactive Weather Map New forecast layout! Learn more

10-Day Weather Forecast

Advertisements
Track Severe Weather on mobile